Lenora, Kansas
Current Conditions -  °F | °C
As of 5:53 AM on Tuesday 27 Jan 2015 (Local Time) from KHLC Reporting Station
Clear Clear  
Wind Chill: 24°   Ceiling: Unl
Heat Index: 30°   Visibility: 10mi
Dew Point: 25°   Wind: 6mph
Humidity: 82%   Direction: 250°WSW
Pressure: 30.07"   Gusts: NA
Location:  39.61°N, 100°W
Report Text: KHLC 271153Z AUTO 25005KT 10SM CLR M01/M04 A3007 RMK AO2 SLP185 T10111039 10050 21011 56009
Loading
Personal Weather Stations






























Interactive Weather Map New forecast layout! Learn more

10-Day Weather Forecast

Advertisements
Track Severe Weather on mobile